Talihina, Oklahoma
Current Conditions -  °F | °C
As of 4:55 PM on Saturday 20 Dec 2014 (Local Time) from KRKR Reporting Station
Overcast Overcast  
Wind Chill: 47°   Ceiling: 2100
Heat Index: 47°   Visibility: 10mi
Dew Point: 40°   Wind: 0mph
Humidity: 78%   Direction: NA
Pressure: 30.21"   Gusts: NA
Location:  34.75°N, 95.05°W
Report Text: KRKR 202255Z AUTO 00000KT 10SM BKN021 BKN025 OVC031 08/05 A3021 RMK AO2 T00820045
Loading
Personal Weather Stations






























Interactive Weather Map New forecast layout! Learn more

10-Day Weather Forecast

Advertisements
Track Severe Weather on mobile